Time;durP1;ratioP1;P1;durP2;ratioP2;P2;SDS_P1;SDS_P2;PMS_P1;PMS_P2;Temp;Humidity;BMP_temperature;BMP_pressure;BME280_temperature;BME280_humidity;BME280_pressure;Samples;Min_cycle;Max_cycle;Signal;HPM_P1;HPM_P2
2023/03/03 00:00:06;;;;;;;49.25;25.63;;;;;;;;;;5102873;28;20074;-43
2023/03/03 00:02:34;;;;;;;42.60;24.75;;;;;;;;;;5096045;28;20027;-45
2023/03/03 00:04:59;;;;;;;44.47;24.45;;;;;;;;;;5097985;28;20032;-45
2023/03/03 00:07:24;;;;;;;41.78;24.60;;;;;;;;;;5096606;28;20383;-45
2023/03/03 00:09:50;;;;;;;38.95;24.08;;;;;;;;;;5102016;28;20092;-44
2023/03/03 00:12:30;;;;;;;39.95;25.80;;;;;;;;;;5102259;28;20047;-45
2023/03/03 00:14:56;;;;;;;36.28;24.25;;;;;;;;;;5103561;28;20491;-46
2023/03/03 00:17:24;;;;;;;39.83;23.92;;;;;;;;;;5100340;28;20107;-45
2023/03/03 00:20:03;;;;;;;36.95;23.33;;;;;;;;;;5101161;28;20051;-44
2023/03/03 00:22:29;;;;;;;40.63;24.40;;;;;;;;;;5101861;28;20031;-43
2023/03/03 00:25:27;;;;;;;41.63;24.17;;;;;;;;;;5101778;28;20036;-50
2023/03/03 00:27:52;;;;;;;39.42;22.60;;;;;;;;;;5101216;28;20036;-44
2023/03/03 00:30:25;;;;;;;38.65;23.05;;;;;;;;;;5100538;28;20043;-47
2023/03/03 00:32:52;;;;;;;39.72;23.45;;;;;;;;;;5107311;28;20023;-45
2023/03/03 00:35:34;;;;;;;37.63;22.15;;;;;;;;;;5100307;28;20044;-44
2023/03/03 00:38:09;;;;;;;37.15;22.15;;;;;;;;;;5100859;28;20127;-44
2023/03/03 00:40:37;;;;;;;35.58;23.42;;;;;;;;;;5098825;28;20400;-44
2023/03/03 00:43:28;;;;;;;35.15;22.42;;;;;;;;;;5099658;28;20127;-44
2023/03/03 00:45:55;;;;;;;40.05;23.85;;;;;;;;;;5098676;28;20040;-44
2023/03/03 00:48:36;;;;;;;39.53;23.90;;;;;;;;;;5102788;28;20488;-45
2023/03/03 00:51:13;;;;;;;32.95;23.23;;;;;;;;;;5100537;28;20063;-45
2023/03/03 00:53:48;;;;;;;38.58;22.83;;;;;;;;;;5099344;28;20040;-43
2023/03/03 00:56:14;;;;;;;39.17;24.10;;;;;;;;;;5096765;28;20124;-46
2023/03/03 00:58:39;;;;;;;35.45;23.17;;;;;;;;;;5103005;28;20507;-44
2023/03/03 01:01:08;;;;;;;45.80;23.45;;;;;;;;;;5101148;28;20842;-45
2023/03/03 01:03:33;;;;;;;36.53;23.80;;;;;;;;;;5105118;28;20464;-53
2023/03/03 01:06:05;;;;;;;41.95;24.00;;;;;;;;;;5104839;28;20036;-44
2023/03/03 01:08:30;;;;;;;41.93;26.57;;;;;;;;;;5106952;28;20051;-45
2023/03/03 01:10:58;;;;;;;42.80;27.52;;;;;;;;;;5102764;28;20047;-44
2023/03/03 01:13:30;;;;;;;48.47;29.65;;;;;;;;;;5102602;28;20051;-46
2023/03/03 01:15:56;;;;;;;39.85;25.70;;;;;;;;;;5100688;28;20027;-43
2023/03/03 01:18:22;;;;;;;41.08;24.88;;;;;;;;;;5105185;28;20157;-44
2023/03/03 01:20:47;;;;;;;48.72;26.30;;;;;;;;;;5101787;28;20111;-45
2023/03/03 01:23:13;;;;;;;37.13;23.85;;;;;;;;;;5099851;27;20031;-43
2023/03/03 01:25:38;;;;;;;38.03;24.13;;;;;;;;;;5102351;28;20629;-44
2023/03/03 01:28:04;;;;;;;42.25;25.35;;;;;;;;;;5103870;27;20116;-43
2023/03/03 01:30:38;;;;;;;44.92;25.25;;;;;;;;;;5098408;28;20048;-44
2023/03/03 01:33:04;;;;;;;39.25;26.23;;;;;;;;;;5101847;28;20028;-45
2023/03/03 01:35:29;;;;;;;38.80;26.02;;;;;;;;;;5097297;28;20036;-44
2023/03/03 01:38:01;;;;;;;42.13;25.50;;;;;;;;;;5100612;28;20020;-44
2023/03/03 01:40:29;;;;;;;42.10;25.87;;;;;;;;;;5103166;28;20120;-44
2023/03/03 01:42:59;;;;;;;37.72;25.13;;;;;;;;;;5098722;28;20040;-44
2023/03/03 01:45:25;;;;;;;39.10;25.27;;;;;;;;;;5100178;28;20104;-43
2023/03/03 01:48:02;;;;;;;39.65;26.00;;;;;;;;;;5102206;28;20038;-45
2023/03/03 01:50:34;;;;;;;38.63;24.63;;;;;;;;;;5099776;28;20119;-44
2023/03/03 01:53:01;;;;;;;;;;;;;;;;;;5098722;28;20086;-44
2023/03/03 01:55:35;;;;;;;40.25;23.17;;;;;;;;;;5101532;27;19927;-44
2023/03/03 01:58:12;;;;;;;39.28;24.02;;;;;;;;;;5103616;28;20472;-43
2023/03/03 02:00:41;;;;;;;47.25;23.73;;;;;;;;;;5101329;28;20077;-43
2023/03/03 02:03:07;;;;;;;39.13;24.27;;;;;;;;;;5102805;28;20455;-45
2023/03/03 02:05:34;;;;;;;39.85;25.33;;;;;;;;;;5096020;28;20023;-45
2023/03/03 02:08:00;;;;;;;37.92;24.40;;;;;;;;;;5106537;28;20164;-44
2023/03/03 02:10:28;;;;;;;39.63;24.33;;;;;;;;;;5101575;28;20139;-46
2023/03/03 02:12:55;;;;;;;37.63;24.60;;;;;;;;;;5100817;28;20127;-44
2023/03/03 02:15:44;;;;;;;39.03;23.77;;;;;;;;;;5103766;27;20096;-44
2023/03/03 02:18:15;;;;;;;39.55;25.45;;;;;;;;;;5103612;28;20538;-47
2023/03/03 02:20:56;;;;;;;36.00;24.05;;;;;;;;;;5105024;28;20020;-46
2023/03/03 02:23:54;;;;;;;42.55;23.10;;;;;;;;;;5099500;28;20044;-44
2023/03/03 02:26:25;;;;;;;38.33;23.08;;;;;;;;;;5099137;28;20097;-44
2023/03/03 02:28:53;;;;;;;36.75;24.90;;;;;;;;;;5102256;28;20146;-46
2023/03/03 02:31:23;;;;;;;38.10;24.35;;;;;;;;;;5104510;28;20036;-44
2023/03/03 02:33:50;;;;;;;43.70;25.23;;;;;;;;;;5101333;28;20053;-44
2023/03/03 02:36:20;;;;;;;40.58;24.10;;;;;;;;;;5100278;28;20031;-43
2023/03/03 02:39:04;;;;;;;39.20;23.65;;;;;;;;;;5101503;28;20812;-45
2023/03/03 02:41:39;;;;;;;41.17;25.33;;;;;;;;;;5099645;28;20515;-44
2023/03/03 02:44:08;;;;;;;44.55;25.40;;;;;;;;;;5097128;28;20400;-46
2023/03/03 02:46:37;;;;;;;39.80;24.70;;;;;;;;;;5105564;28;20027;-44
2023/03/03 02:49:03;;;;;;;43.92;24.23;;;;;;;;;;5101077;28;20561;-43
2023/03/03 02:51:39;;;;;;;39.08;24.38;;;;;;;;;;5102802;28;20484;-45
2023/03/03 02:54:05;;;;;;;39.60;23.40;;;;;;;;;;5098191;28;20051;-43
2023/03/03 02:56:31;;;;;;;36.83;23.55;;;;;;;;;;5100966;28;20051;-44
2023/03/03 02:58:56;;;;;;;40.13;24.42;;;;;;;;;;5096925;28;20500;-45
2023/03/03 03:01:22;;;;;;;42.55;25.63;;;;;;;;;;5103424;28;20024;-44
2023/03/03 03:03:53;;;;;;;39.72;24.55;;;;;;;;;;5100237;28;20518;-44
2023/03/03 03:06:19;;;;;;;42.58;24.88;;;;;;;;;;5100111;28;20035;-44
2023/03/03 03:08:44;;;;;;;41.75;24.42;;;;;;;;;;5100863;28;20123;-45
2023/03/03 03:11:13;;;;;;;39.47;24.85;;;;;;;;;;5100757;28;20032;-45
2023/03/03 03:13:38;;;;;;;39.35;24.63;;;;;;;;;;5106048;28;20039;-45
2023/03/03 03:16:16;;;;;;;39.10;22.90;;;;;;;;;;5102543;28;20102;-45
2023/03/03 03:18:41;;;;;;;36.85;23.65;;;;;;;;;;5100411;28;20050;-47
2023/03/03 03:21:08;;;;;;;40.53;24.27;;;;;;;;;;5099746;28;20372;-44
2023/03/03 03:23:43;;;;;;;38.75;23.77;;;;;;;;;;5102366;28;20047;-46
2023/03/03 03:26:08;;;;;;;41.05;23.85;;;;;;;;;;5100454;28;20039;-46
2023/03/03 03:28:34;;;;;;;43.30;26.08;;;;;;;;;;5097922;28;20032;-45
2023/03/03 03:30:59;;;;;;;41.03;23.48;;;;;;;;;;5099136;28;20403;-47
2023/03/03 03:33:27;;;;;;;41.53;25.15;;;;;;;;;;5099763;28;21083;-44
2023/03/03 03:35:54;;;;;;;39.75;22.38;;;;;;;;;;5101228;28;20539;-43
2023/03/03 03:38:20;;;;;;;39.25;23.13;;;;;;;;;;5099189;28;20480;-44
2023/03/03 03:40:49;;;;;;;38.00;23.40;;;;;;;;;;5096263;28;20019;-44
2023/03/03 03:43:14;;;;;;;44.97;24.40;;;;;;;;;;5100697;28;20108;-46
2023/03/03 03:45:43;;;;;;;45.50;24.52;;;;;;;;;;5098860;28;20052;-44
2023/03/03 03:48:15;;;;;;;39.95;24.25;;;;;;;;;;5100526;28;20028;-44
2023/03/03 03:50:48;;;;;;;43.20;23.60;;;;;;;;;;5098702;28;20063;-43
2023/03/03 03:53:16;;;;;;;43.30;24.05;;;;;;;;;;5096874;28;20032;-44
2023/03/03 03:55:43;;;;;;;38.95;23.50;;;;;;;;;;5097686;28;20029;-48
2023/03/03 03:58:16;;;;;;;37.70;24.10;;;;;;;;;;5098001;28;20023;-44
2023/03/03 04:00:41;;;;;;;43.42;24.42;;;;;;;;;;5096715;28;20032;-48
2023/03/03 04:03:07;;;;;;;40.50;24.48;;;;;;;;;;5101721;28;20038;-46
2023/03/03 04:05:33;;;;;;;39.83;24.00;;;;;;;;;;5101169;28;20046;-44
2023/03/03 04:07:58;;;;;;;40.22;23.65;;;;;;;;;;5099819;28;20032;-46
2023/03/03 04:10:30;;;;;;;37.47;22.63;;;;;;;;;;5097974;28;20060;-47
2023/03/03 04:12:55;;;;;;;40.37;23.87;;;;;;;;;;5100448;28;20028;-44
2023/03/03 04:15:20;;;;;;;39.05;24.70;;;;;;;;;;5096581;28;20459;-44
2023/03/03 04:17:46;;;;;;;39.03;23.35;;;;;;;;;;5102912;28;20031;-44
2023/03/03 04:20:14;;;;;;;39.90;24.38;;;;;;;;;;5099214;28;20044;-44
2023/03/03 04:22:51;;;;;;;43.88;24.50;;;;;;;;;;5095278;28;20739;-48
2023/03/03 04:25:17;;;;;;;39.50;24.50;;;;;;;;;;5099289;28;20377;-49
2023/03/03 04:27:43;;;;;;;40.83;24.60;;;;;;;;;;5102113;28;20035;-44
2023/03/03 04:30:09;;;;;;;38.85;25.70;;;;;;;;;;5097142;28;20567;-44
2023/03/03 04:32:35;;;;;;;46.17;26.70;;;;;;;;;;5100686;28;20039;-44
2023/03/03 04:35:01;;;;;;;40.88;25.00;;;;;;;;;;5098968;28;20039;-46
2023/03/03 04:37:26;;;;;;;38.53;25.02;;;;;;;;;;5098408;28;20035;-44
2023/03/03 04:39:51;;;;;;;41.03;24.80;;;;;;;;;;5097101;28;20048;-43
2023/03/03 04:42:17;;;;;;;44.10;24.90;;;;;;;;;;5101431;28;20103;-50
2023/03/03 04:44:55;;;;;;;41.97;23.95;;;;;;;;;;5101788;28;20040;-44
2023/03/03 04:47:23;;;;;;;38.15;25.20;;;;;;;;;;5099746;28;20172;-44
2023/03/03 04:49:48;;;;;;;43.58;24.77;;;;;;;;;;5100132;28;20040;-45
2023/03/03 04:52:14;;;;;;;42.15;24.42;;;;;;;;;;5096606;28;20047;-45
2023/03/03 04:54:40;;;;;;;41.45;24.98;;;;;;;;;;5102082;28;20518;-49
2023/03/03 04:57:06;;;;;;;43.65;26.40;;;;;;;;;;5099647;28;20692;-44
2023/03/03 04:59:32;;;;;;;42.67;25.20;;;;;;;;;;5097036;28;20130;-44
2023/03/03 05:01:57;;;;;;;41.95;25.73;;;;;;;;;;5099444;28;20036;-46
2023/03/03 05:04:22;;;;;;;39.25;24.92;;;;;;;;;;5097652;28;20054;-43
2023/03/03 05:06:57;;;;;;;38.45;24.33;;;;;;;;;;5099607;28;20035;-49
2023/03/03 05:09:22;;;;;;;41.90;24.50;;;;;;;;;;5102027;28;20042;-47
2023/03/03 05:11:48;;;;;;;44.78;23.00;;;;;;;;;;5093241;28;20023;-44
2023/03/03 05:14:16;;;;;;;42.92;24.20;;;;;;;;;;5099396;27;20123;-46
2023/03/03 05:16:48;;;;;;;40.05;24.20;;;;;;;;;;5103178;28;20467;-44
2023/03/03 05:19:13;;;;;;;37.50;23.33;;;;;;;;;;5098939;28;20047;-44
2023/03/03 05:21:41;;;;;;;35.63;22.83;;;;;;;;;;5100657;28;20432;-44
2023/03/03 05:24:17;;;;;;;39.17;24.60;;;;;;;;;;5091734;28;20173;-45
2023/03/03 05:26:43;;;;;;;36.97;23.10;;;;;;;;;;5099262;28;20503;-44
2023/03/03 05:29:08;;;;;;;38.47;24.30;;;;;;;;;;5103082;28;20088;-44
2023/03/03 05:31:34;;;;;;;40.80;23.52;;;;;;;;;;5095596;28;20034;-47
2023/03/03 05:33:59;;;;;;;40.22;24.60;;;;;;;;;;5099037;28;20632;-44
2023/03/03 05:36:34;;;;;;;40.95;24.00;;;;;;;;;;5096816;28;20039;-44
2023/03/03 05:38:59;;;;;;;37.90;23.45;;;;;;;;;;5098430;28;20043;-45
2023/03/03 05:41:25;;;;;;;42.22;24.73;;;;;;;;;;5097995;28;20039;-45
2023/03/03 05:43:50;;;;;;;42.00;25.25;;;;;;;;;;5096042;28;20523;-49
2023/03/03 05:46:16;;;;;;;42.72;26.17;;;;;;;;;;5102976;28;20490;-46
2023/03/03 05:48:53;;;;;;;48.15;31.08;;;;;;;;;;5099790;28;20493;-45
2023/03/03 05:51:19;;;;;;;53.03;32.17;;;;;;;;;;5101366;28;20020;-46
2023/03/03 05:53:44;;;;;;;47.75;31.35;;;;;;;;;;5099019;28;20101;-45
2023/03/03 05:56:12;;;;;;;44.78;27.23;;;;;;;;;;5103835;28;20110;-45
2023/03/03 05:58:38;;;;;;;45.15;26.02;;;;;;;;;;5103186;28;20059;-48
2023/03/03 06:01:03;;;;;;;42.83;26.05;;;;;;;;;;5104314;28;21113;-44
2023/03/03 06:03:28;;;;;;;44.83;26.98;;;;;;;;;;5104901;28;20044;-44
2023/03/03 06:05:54;;;;;;;45.75;27.00;;;;;;;;;;5102471;28;20127;-44
2023/03/03 06:08:22;;;;;;;47.83;27.75;;;;;;;;;;5101166;28;20036;-46
2023/03/03 06:10:48;;;;;;;43.28;26.15;;;;;;;;;;5104645;28;20081;-44
2023/03/03 06:13:13;;;;;;;43.58;27.92;;;;;;;;;;5104022;28;20052;-45
2023/03/03 06:15:39;;;;;;;41.38;26.52;;;;;;;;;;5099865;28;20031;-46
2023/03/03 06:18:04;;;;;;;42.92;25.63;;;;;;;;;;5104600;28;20024;-47
2023/03/03 06:20:30;;;;;;;46.50;27.17;;;;;;;;;;5099064;28;20206;-44
2023/03/03 06:22:56;;;;;;;44.17;27.23;;;;;;;;;;5102222;28;20019;-44
2023/03/03 06:25:22;;;;;;;42.45;26.23;;;;;;;;;;5101044;28;20519;-44
2023/03/03 06:27:47;;;;;;;51.72;25.67;;;;;;;;;;5103380;28;20015;-46
2023/03/03 06:30:13;;;;;;;45.42;26.20;;;;;;;;;;5101319;28;20043;-45
2023/03/03 06:32:38;;;;;;;43.50;25.83;;;;;;;;;;5101512;28;20023;-43
2023/03/03 06:35:04;;;;;;;51.78;27.45;;;;;;;;;;5103795;27;21322;-45
2023/03/03 06:37:30;;;;;;;48.42;28.30;;;;;;;;;;5097764;28;20032;-49
2023/03/03 06:40:06;;;;;;;44.60;26.33;;;;;;;;;;5104865;28;20184;-44
2023/03/03 06:42:32;;;;;;;41.53;25.48;;;;;;;;;;5096568;28;20093;-48
2023/03/03 06:44:57;;;;;;;38.47;22.70;;;;;;;;;;5097005;27;20535;-45
2023/03/03 06:47:26;;;;;;;35.17;22.58;;;;;;;;;;5104161;28;20024;-50
2023/03/03 06:49:51;;;;;;;39.83;23.67;;;;;;;;;;5098691;28;20628;-43
2023/03/03 06:52:26;;;;;;;39.42;23.88;;;;;;;;;;5102551;28;20102;-46
2023/03/03 06:54:56;;;;;;;39.72;23.33;;;;;;;;;;5103848;28;20069;-47
2023/03/03 06:57:32;;;;;;;44.08;24.33;;;;;;;;;;5099605;28;20114;-49
2023/03/03 07:00:23;;;;;;;38.97;23.75;;;;;;;;;;5100021;28;20584;-44
2023/03/03 07:03:16;;;;;;;43.28;25.13;;;;;;;;;;5101449;28;20086;-44
2023/03/03 07:05:42;;;;;;;40.50;23.27;;;;;;;;;;5096313;28;20122;-45
2023/03/03 07:08:22;;;;;;;42.08;23.90;;;;;;;;;;5097258;28;20107;-45
2023/03/03 07:10:49;;;;;;;34.15;22.65;;;;;;;;;;5101815;27;20477;-43
2023/03/03 07:13:22;;;;;;;38.83;23.25;;;;;;;;;;5095066;28;20050;-49
2023/03/03 07:16:11;;;;;;;45.80;24.75;;;;;;;;;;5094309;28;20031;-44
2023/03/03 07:18:46;;;;;;;36.30;21.88;;;;;;;;;;5097964;28;20040;-44
2023/03/03 07:21:21;;;;;;;45.08;23.63;;;;;;;;;;5098958;28;20201;-43
2023/03/03 07:23:51;;;;;;;35.95;23.17;;;;;;;;;;5099176;28;20403;-44
2023/03/03 07:26:29;;;;;;;37.45;24.25;;;;;;;;;;5096556;28;20114;-46
2023/03/03 07:29:24;;;;;;;40.13;23.40;;;;;;;;;;5095495;28;20039;-46
2023/03/03 07:31:50;;;;;;;40.88;22.48;;;;;;;;;;5100051;28;20443;-50
2023/03/03 07:34:31;;;;;;;40.05;22.73;;;;;;;;;;5096920;28;20051;-46
2023/03/03 07:37:01;;;;;;;32.40;21.25;;;;;;;;;;5098950;28;20030;-47
2023/03/03 07:39:38;;;;;;;47.75;23.00;;;;;;;;;;5099412;28;20047;-44
2023/03/03 07:42:26;;;;;;;37.40;22.75;;;;;;;;;;5098467;28;20024;-47
2023/03/03 07:44:57;;;;;;;36.78;22.63;;;;;;;;;;5099961;28;20040;-45
2023/03/03 07:47:34;;;;;;;39.53;23.38;;;;;;;;;;5101870;28;20035;-50
2023/03/03 07:50:12;;;;;;;36.20;22.05;;;;;;;;;;5100071;28;20576;-43
2023/03/03 07:52:44;;;;;;;39.08;23.33;;;;;;;;;;5096550;28;20062;-45
2023/03/03 07:55:34;;;;;;;34.83;22.40;;;;;;;;;;5099127;28;20608;-47
2023/03/03 07:58:15;;;;;;;37.63;22.38;;;;;;;;;;5095441;28;20481;-50
2023/03/03 08:01:17;;;;;;;38.85;22.77;;;;;;;;;;5098682;28;20043;-48
2023/03/03 08:03:49;;;;;;;39.08;23.08;;;;;;;;;;5096580;27;20036;-50
2023/03/03 08:06:43;;;;;;;38.90;23.00;;;;;;;;;;5099089;28;20028;-46
2023/03/03 08:09:20;;;;;;;35.80;22.45;;;;;;;;;;5096867;28;20131;-45
2023/03/03 08:11:54;;;;;;;32.58;21.42;;;;;;;;;;5099796;28;20076;-45
2023/03/03 08:14:36;;;;;;;36.92;18.70;;;;;;;;;;5098101;28;20078;-44
2023/03/03 08:17:13;;;;;;;31.67;20.38;;;;;;;;;;5101665;28;20031;-47
2023/03/03 08:19:39;;;;;;;31.52;20.77;;;;;;;;;;5095761;28;20408;-44
2023/03/03 08:22:39;;;;;;;28.52;19.33;;;;;;;;;;5094561;28;20024;-49
2023/03/03 08:25:05;;;;;;;27.30;18.58;;;;;;;;;;5075482;28;20040;-50
2023/03/03 08:27:30;;;;;;;26.48;18.02;;;;;;;;;;5080665;28;20447;-48
2023/03/03 08:29:57;;;;;;;29.88;18.45;;;;;;;;;;5077622;28;21098;-47
2023/03/03 08:32:23;;;;;;;25.88;18.42;;;;;;;;;;5078554;28;20085;-48
2023/03/03 08:35:00;;;;;;;29.27;20.38;;;;;;;;;;5074211;28;20037;-46
2023/03/03 08:37:26;;;;;;;30.55;19.00;;;;;;;;;;5082052;28;20074;-45
2023/03/03 08:39:51;;;;;;;41.28;20.20;;;;;;;;;;5075431;28;20040;-49
2023/03/03 08:42:17;;;;;;;29.73;19.38;;;;;;;;;;5064288;28;20028;-45
2023/03/03 08:44:42;;;;;;;30.17;20.48;;;;;;;;;;5075727;28;20132;-44
2023/03/03 08:47:08;;;;;;;27.27;19.35;;;;;;;;;;5076558;28;20051;-45
2023/03/03 08:49:33;;;;;;;27.27;19.20;;;;;;;;;;5067440;28;20687;-46
2023/03/03 08:51:59;;;;;;;36.83;20.23;;;;;;;;;;5078781;28;20020;-48
2023/03/03 08:54:27;;;;;;;27.48;18.75;;;;;;;;;;5076366;28;20095;-45
2023/03/03 08:56:53;;;;;;;34.85;19.98;;;;;;;;;;5080551;28;20031;-47
2023/03/03 08:59:19;;;;;;;42.20;23.73;;;;;;;;;;5073873;28;20089;-45
2023/03/03 09:01:44;;;;;;;29.70;18.42;;;;;;;;;;5096817;28;20051;-45
2023/03/03 09:04:10;;;;;;;30.35;21.42;;;;;;;;;;5100830;28;20395;-47
2023/03/03 09:06:45;;;;;;;32.28;18.95;;;;;;;;;;5101139;28;20119;-45
2023/03/03 09:09:10;;;;;;;29.73;17.92;;;;;;;;;;5100251;27;20545;-45
2023/03/03 09:11:36;;;;;;;29.17;18.30;;;;;;;;;;5101373;28;20024;-46
2023/03/03 09:14:13;;;;;;;25.40;16.45;;;;;;;;;;5097247;28;20743;-50
2023/03/03 09:16:58;;;;;;;25.02;16.63;;;;;;;;;;5093400;28;20423;-45
2023/03/03 09:19:31;;;;;;;20.83;15.95;;;;;;;;;;5103351;28;20032;-45
2023/03/03 09:22:19;;;;;;;22.90;16.38;;;;;;;;;;5100153;28;20077;-45
2023/03/03 09:24:46;;;;;;;23.58;17.00;;;;;;;;;;5095976;28;20042;-49
2023/03/03 09:27:29;;;;;;;26.70;16.38;;;;;;;;;;5102598;28;20074;-44
2023/03/03 09:30:00;;;;;;;26.63;16.30;;;;;;;;;;5099293;28;20043;-44
2023/03/03 09:32:41;;;;;;;24.58;17.42;;;;;;;;;;5100084;28;20419;-47
2023/03/03 09:35:25;;;;;;;24.35;17.33;;;;;;;;;;5102050;28;20081;-47
2023/03/03 09:37:52;;;;;;;22.65;16.38;;;;;;;;;;5097534;28;20015;-44
2023/03/03 09:40:52;;;;;;;26.80;16.70;;;;;;;;;;5101571;28;20119;-46
2023/03/03 09:43:42;;;;;;;23.25;16.00;;;;;;;;;;5100655;28;20514;-44
2023/03/03 09:46:26;;;;;;;22.05;16.65;;;;;;;;;;5103338;28;20039;-44
2023/03/03 09:49:24;;;;;;;24.25;16.90;;;;;;;;;;5100877;28;20038;-44
2023/03/03 09:52:02;;;;;;;26.98;17.15;;;;;;;;;;5081691;28;20055;-47
2023/03/03 09:54:57;;;;;;;23.90;16.52;;;;;;;;;;5077570;28;20044;-44
2023/03/03 09:57:43;;;;;;;23.25;17.17;;;;;;;;;;5079747;28;20036;-43
2023/03/03 10:00:27;;;;;;;23.40;16.60;;;;;;;;;;5078532;28;20041;-45
2023/03/03 10:03:06;;;;;;;24.05;17.08;;;;;;;;;;5083340;28;20442;-43
2023/03/03 10:05:41;;;;;;;22.67;16.63;;;;;;;;;;5079001;28;20584;-46
2023/03/03 10:08:15;;;;;;;23.95;16.20;;;;;;;;;;5083102;28;20063;-45
2023/03/03 10:11:04;;;;;;;25.25;16.38;;;;;;;;;;5085534;28;20027;-45
2023/03/03 10:13:53;;;;;;;22.35;15.35;;;;;;;;;;5079119;28;20205;-43
2023/03/03 10:16:39;;;;;;;25.50;15.35;;;;;;;;;;5081099;28;20481;-47
2023/03/03 10:19:33;;;;;;;22.05;15.65;;;;;;;;;;5075026;28;20133;-43
2023/03/03 10:22:19;;;;;;;22.40;16.17;;;;;;;;;;5077912;28;20218;-43
2023/03/03 10:25:08;;;;;;;24.98;16.70;;;;;;;;;;5082178;28;20729;-47
2023/03/03 10:28:05;;;;;;;22.58;16.95;;;;;;;;;;5090336;28;20556;-50
2023/03/03 10:31:22;;;;;;;23.35;17.52;;;;;;;;;;5100868;28;20096;-46
2023/03/03 10:34:14;;;;;;;27.27;19.65;;;;;;;;;;5100769;28;20039;-43
2023/03/03 10:37:02;;;;;;;22.05;17.35;;;;;;;;;;5103671;28;20081;-46
2023/03/03 10:39:42;;;;;;;25.42;16.88;;;;;;;;;;5100071;28;20156;-44
2023/03/03 10:42:28;;;;;;;24.00;16.50;;;;;;;;;;5103809;28;20076;-44
2023/03/03 10:45:18;;;;;;;24.58;17.25;;;;;;;;;;5094980;27;20043;-43
2023/03/03 10:48:16;;;;;;;24.30;16.83;;;;;;;;;;5102255;28;20032;-47
2023/03/03 10:51:20;;;;;;;26.45;16.10;;;;;;;;;;5097660;28;20044;-45
2023/03/03 10:54:25;;;;;;;22.70;15.32;;;;;;;;;;5102969;28;20082;-46
2023/03/03 10:57:08;;;;;;;19.05;14.73;;;;;;;;;;5084550;28;20044;-44
2023/03/03 10:59:53;;;;;;;20.25;14.05;;;;;;;;;;5079828;28;20052;-44
2023/03/03 11:02:40;;;;;;;22.52;15.35;;;;;;;;;;5079533;28;20056;-46
2023/03/03 11:05:49;;;;;;;20.33;14.43;;;;;;;;;;5076030;28;20040;-46
2023/03/03 11:08:18;;;;;;;18.05;12.35;;;;;;;;;;5069118;28;20126;-44
2023/03/03 11:11:33;;;;;;;20.38;14.05;;;;;;;;;;5072549;28;20044;-47
2023/03/03 11:14:27;;;;;;;17.33;13.88;;;;;;;;;;5041409;28;20092;-44
2023/03/03 11:17:15;;;;;;;19.88;14.65;;;;;;;;;;5046958;28;20040;-46
2023/03/03 11:20:28;;;;;;;20.92;14.60;;;;;;;;;;5037866;28;20049;-46
2023/03/03 11:23:26;;;;;;;23.98;14.73;;;;;;;;;;5034618;28;20041;-45
2023/03/03 11:26:23;;;;;;;24.95;15.15;;;;;;;;;;4984804;28;20050;-49
2023/03/03 11:29:10;;;;;;;25.08;16.75;;;;;;;;;;4985123;28;20046;-43
2023/03/03 11:32:13;;;;;;;19.48;15.13;;;;;;;;;;4981572;28;20116;-46
2023/03/03 11:35:00;;;;;;;23.40;15.88;;;;;;;;;;4964033;28;20685;-45
2023/03/03 11:37:46;;;;;;;26.30;17.08;;;;;;;;;;4965535;28;20086;-45
2023/03/03 11:40:25;;;;;;;21.80;15.25;;;;;;;;;;4966138;28;20097;-44
2023/03/03 11:43:01;;;;;;;23.27;15.27;;;;;;;;;;4964038;28;20511;-47
2023/03/03 11:45:52;;;;;;;25.50;17.08;;;;;;;;;;4962001;28;20551;-46
2023/03/03 11:48:35;;;;;;;21.60;16.25;;;;;;;;;;4964492;28;20066;-45
2023/03/03 11:51:28;;;;;;;27.77;16.05;;;;;;;;;;5004380;28;20131;-43
2023/03/03 11:54:00;;;;;;;23.98;16.60;;;;;;;;;;5017222;28;20076;-44
2023/03/03 11:56:44;;;;;;;21.27;15.05;;;;;;;;;;5024217;28;20824;-44
2023/03/03 11:59:25;;;;;;;25.63;16.17;;;;;;;;;;5020685;28;20049;-48
2023/03/03 12:02:23;;;;;;;24.80;17.15;;;;;;;;;;5030817;28;20124;-46
2023/03/03 12:04:59;;;;;;;23.50;16.02;;;;;;;;;;5096360;28;20107;-48
2023/03/03 12:08:06;;;;;;;24.13;16.85;;;;;;;;;;5096597;28;20092;-46
2023/03/03 12:10:47;;;;;;;24.38;17.27;;;;;;;;;;5096273;28;20137;-50
2023/03/03 12:13:33;;;;;;;27.45;17.67;;;;;;;;;;5098274;28;20047;-44
2023/03/03 12:16:05;;;;;;;24.05;17.23;;;;;;;;;;5097724;28;20028;-44
2023/03/03 12:18:48;;;;;;;22.30;16.42;;;;;;;;;;5096262;28;20048;-45
2023/03/03 12:21:35;;;;;;;24.85;17.48;;;;;;;;;;5091418;28;20027;-47
2023/03/03 12:24:46;;;;;;;21.38;14.55;;;;;;;;;;5096412;28;20036;-48
2023/03/03 12:27:17;;;;;;;19.90;14.65;;;;;;;;;;5097472;28;20039;-43
2023/03/03 12:29:57;;;;;;;23.05;15.05;;;;;;;;;;5096643;28;20032;-46
2023/03/03 12:32:42;;;;;;;19.20;14.50;;;;;;;;;;5098303;28;20035;-46
2023/03/03 12:35:25;;;;;;;17.33;12.70;;;;;;;;;;5098566;28;20089;-46
2023/03/03 12:38:09;;;;;;;18.75;12.95;;;;;;;;;;5095753;28;20111;-43
2023/03/03 12:40:45;;;;;;;17.15;12.57;;;;;;;;;;5097490;28;20507;-43
2023/03/03 12:43:31;;;;;;;16.45;13.15;;;;;;;;;;5097848;28;20361;-43
2023/03/03 12:46:12;;;;;;;19.27;13.27;;;;;;;;;;5100157;28;20166;-44
2023/03/03 12:48:40;;;;;;;21.25;13.80;;;;;;;;;;5097132;28;20048;-44
2023/03/03 12:51:30;;;;;;;21.17;14.10;;;;;;;;;;5096224;28;20455;-46
2023/03/03 12:54:23;;;;;;;19.65;13.93;;;;;;;;;;5095824;28;20116;-46
2023/03/03 12:56:53;;;;;;;14.18;10.48;;;;;;;;;;5099658;28;20476;-44
2023/03/03 12:59:55;;;;;;;12.75;9.35;;;;;;;;;;5098644;28;20054;-45
2023/03/03 13:02:50;;;;;;;15.85;9.48;;;;;;;;;;5099532;28;20035;-44
2023/03/03 13:05:36;;;;;;;12.30;9.10;;;;;;;;;;5100940;28;20044;-44
2023/03/03 13:08:30;;;;;;;11.88;9.10;;;;;;;;;;5102868;28;20539;-45
2023/03/03 13:11:14;;;;;;;13.40;9.68;;;;;;;;;;5101999;28;20054;-45
2023/03/03 13:13:56;;;;;;;14.43;11.35;;;;;;;;;;5102503;28;20423;-43
2023/03/03 13:16:43;;;;;;;14.30;10.75;;;;;;;;;;5102257;28;20510;-43
2023/03/03 13:19:15;;;;;;;14.88;10.93;;;;;;;;;;5091530;28;20088;-44
2023/03/03 13:21:49;;;;;;;17.20;13.32;;;;;;;;;;5083026;28;20115;-45
2023/03/03 13:24:30;;;;;;;18.38;14.00;;;;;;;;;;5082718;28;20060;-50
2023/03/03 13:27:33;;;;;;;18.95;13.23;;;;;;;;;;5082578;28;20031;-46
2023/03/03 13:30:27;;;;;;;18.52;12.90;;;;;;;;;;5017171;28;20029;-45
2023/03/03 13:32:58;;;;;;;19.10;12.85;;;;;;;;;;5020282;28;20041;-47
2023/03/03 13:35:39;;;;;;;20.50;12.63;;;;;;;;;;5013446;28;20089;-44
2023/03/03 13:38:11;;;;;;;16.13;12.60;;;;;;;;;;5023805;28;20041;-44
2023/03/03 13:40:45;;;;;;;19.75;12.38;;;;;;;;;;5019051;28;20208;-45
2023/03/03 13:43:52;;;;;;;18.10;11.70;;;;;;;;;;5020917;28;20391;-44
2023/03/03 13:46:47;;;;;;;14.48;10.55;;;;;;;;;;5012271;28;20033;-43
2023/03/03 13:49:44;;;;;;;21.48;14.00;;;;;;;;;;5017550;28;20153;-49
2023/03/03 13:52:21;;;;;;;21.95;16.40;;;;;;;;;;5018431;28;20065;-47
2023/03/03 13:55:08;;;;;;;23.75;15.85;;;;;;;;;;5009469;28;20893;-46
2023/03/03 13:57:42;;;;;;;24.17;15.57;;;;;;;;;;5010741;28;20511;-44
2023/03/03 14:00:28;;;;;;;27.52;17.30;;;;;;;;;;5014637;28;20084;-46
2023/03/03 14:03:17;;;;;;;32.00;17.48;;;;;;;;;;5022976;28;20029;-44
2023/03/03 14:06:13;;;;;;;29.90;18.45;;;;;;;;;;5076901;28;20044;-43
2023/03/03 14:09:14;;;;;;;24.95;16.42;;;;;;;;;;5099981;28;20178;-43
2023/03/03 14:11:50;;;;;;;24.02;16.65;;;;;;;;;;5102791;28;20070;-48
2023/03/03 14:14:37;;;;;;;30.35;16.33;;;;;;;;;;5102873;27;20496;-47
2023/03/03 14:17:06;;;;;;;20.08;14.20;;;;;;;;;;5101096;28;20020;-44
2023/03/03 14:19:37;;;;;;;22.95;14.23;;;;;;;;;;5105252;27;20047;-46
2023/03/03 14:22:05;;;;;;;20.80;13.65;;;;;;;;;;5105339;28;20107;-46
2023/03/03 14:24:51;;;;;;;18.40;12.38;;;;;;;;;;5100265;28;20036;-46
2023/03/03 14:27:35;;;;;;;19.00;12.85;;;;;;;;;;5100244;28;20032;-44
2023/03/03 14:30:25;;;;;;;20.52;14.10;;;;;;;;;;5098838;28;20044;-43
2023/03/03 14:33:11;;;;;;;15.93;12.90;;;;;;;;;;5104866;28;20035;-44
2023/03/03 14:36:00;;;;;;;20.48;15.98;;;;;;;;;;5103110;28;20108;-45
2023/03/03 14:38:31;;;;;;;20.08;14.38;;;;;;;;;;5098259;28;20516;-48
2023/03/03 14:41:11;;;;;;;17.70;13.73;;;;;;;;;;5100466;28;20513;-44
2023/03/03 14:43:40;;;;;;;16.20;11.60;;;;;;;;;;5097695;28;20071;-44
2023/03/03 14:46:24;;;;;;;20.15;12.05;;;;;;;;;;5101428;28;20023;-47
2023/03/03 14:48:51;;;;;;;16.55;11.75;;;;;;;;;;5096666;27;20071;-46
2023/03/03 14:51:30;;;;;;;15.95;11.55;;;;;;;;;;5104030;27;20036;-44
2023/03/03 14:53:56;;;;;;;16.77;11.15;;;;;;;;;;5099127;28;20050;-46
2023/03/03 14:56:27;;;;;;;16.70;10.82;;;;;;;;;;5099490;28;20039;-46
2023/03/03 14:59:22;;;;;;;14.63;10.55;;;;;;;;;;5102083;28;20114;-46
2023/03/03 15:02:02;;;;;;;13.52;10.77;;;;;;;;;;5101182;28;20031;-48
2023/03/03 15:04:29;;;;;;;16.02;10.32;;;;;;;;;;5099518;28;20096;-42
2023/03/03 15:07:40;;;;;;;21.02;14.02;;;;;;;;;;5091536;28;20118;-42